sensor_id;sensor_type;location;lat;lon;timestamp;pressure;altitude;pressure_sealevel;temperature
18219;BMP180;9234;49.344;11.120;2022-12-24T00:01:35;96776.00;;;12.10
18219;BMP180;9234;49.344;11.120;2022-12-24T00:04:04;96788.00;;;12.10
18219;BMP180;9234;49.344;11.120;2022-12-24T00:06:32;96790.00;;;12.10
18219;BMP180;9234;49.344;11.120;2022-12-24T00:09:01;96780.00;;;12.10
18219;BMP180;9234;49.344;11.120;2022-12-24T00:11:29;96772.00;;;12.10
18219;BMP180;9234;49.344;11.120;2022-12-24T00:13:57;96790.00;;;12.10
18219;BMP180;9234;49.344;11.120;2022-12-24T00:16:27;96798.00;;;12.10
18219;BMP180;9234;49.344;11.120;2022-12-24T00:18:55;96786.00;;;12.10
18219;BMP180;9234;49.344;11.120;2022-12-24T00:21:23;96797.00;;;12.10
18219;BMP180;9234;49.344;11.120;2022-12-24T00:23:52;96808.00;;;12.20
18219;BMP180;9234;49.344;11.120;2022-12-24T00:26:20;96805.00;;;12.20
18219;BMP180;9234;49.344;11.120;2022-12-24T00:28:48;96818.00;;;12.20
18219;BMP180;9234;49.344;11.120;2022-12-24T00:31:18;96811.00;;;12.20
18219;BMP180;9234;49.344;11.120;2022-12-24T00:33:48;96812.00;;;12.20
18219;BMP180;9234;49.344;11.120;2022-12-24T00:36:18;96816.00;;;12.20
18219;BMP180;9234;49.344;11.120;2022-12-24T00:38:47;96808.00;;;12.20
18219;BMP180;9234;49.344;11.120;2022-12-24T00:41:15;96829.00;;;12.20
18219;BMP180;9234;49.344;11.120;2022-12-24T00:43:58;96820.00;;;12.10
18219;BMP180;9234;49.344;11.120;2022-12-24T00:46:29;96826.00;;;12.10
18219;BMP180;9234;49.344;11.120;2022-12-24T00:48:59;96823.00;;;12.10
18219;BMP180;9234;49.344;11.120;2022-12-24T00:51:29;96827.00;;;12.10
18219;BMP180;9234;49.344;11.120;2022-12-24T00:53:57;96829.00;;;12.00
18219;BMP180;9234;49.344;11.120;2022-12-24T00:56:25;96820.00;;;12.00
18219;BMP180;9234;49.344;11.120;2022-12-24T00:58:54;96826.00;;;12.00
18219;BMP180;9234;49.344;11.120;2022-12-24T01:01:23;96814.00;;;12.00
18219;BMP180;9234;49.344;11.120;2022-12-24T01:03:52;96814.00;;;12.00
18219;BMP180;9234;49.344;11.120;2022-12-24T01:06:42;96834.00;;;11.90
18219;BMP180;9234;49.344;11.120;2022-12-24T01:09:09;96833.00;;;11.90
18219;BMP180;9234;49.344;11.120;2022-12-24T01:11:38;96845.00;;;11.90
18219;BMP180;9234;49.344;11.120;2022-12-24T01:14:06;96843.00;;;11.80
18219;BMP180;9234;49.344;11.120;2022-12-24T01:16:34;96852.00;;;11.80
18219;BMP180;9234;49.344;11.120;2022-12-24T01:19:03;96841.00;;;11.80
18219;BMP180;9234;49.344;11.120;2022-12-24T01:21:31;96869.00;;;11.80
18219;BMP180;9234;49.344;11.120;2022-12-24T01:24:00;96869.00;;;11.80
18219;BMP180;9234;49.344;11.120;2022-12-24T01:26:28;96871.00;;;11.80
18219;BMP180;9234;49.344;11.120;2022-12-24T01:28:56;96876.00;;;11.80
18219;BMP180;9234;49.344;11.120;2022-12-24T01:31:26;96883.00;;;11.80
18219;BMP180;9234;49.344;11.120;2022-12-24T01:33:54;96894.00;;;11.80
18219;BMP180;9234;49.344;11.120;2022-12-24T01:36:22;96896.00;;;11.80
18219;BMP180;9234;49.344;11.120;2022-12-24T01:38:50;96902.00;;;11.80
18219;BMP180;9234;49.344;11.120;2022-12-24T01:41:22;96897.00;;;11.80
18219;BMP180;9234;49.344;11.120;2022-12-24T01:44:22;96909.00;;;11.70
18219;BMP180;9234;49.344;11.120;2022-12-24T01:47:07;96894.00;;;11.70
18219;BMP180;9234;49.344;11.120;2022-12-24T01:49:39;96906.00;;;11.70
18219;BMP180;9234;49.344;11.120;2022-12-24T01:52:13;96911.00;;;11.60
18219;BMP180;9234;49.344;11.120;2022-12-24T01:54:47;96902.00;;;11.60
18219;BMP180;9234;49.344;11.120;2022-12-24T01:57:21;96918.00;;;11.50
18219;BMP180;9234;49.344;11.120;2022-12-24T01:59:56;96924.00;;;11.50
18219;BMP180;9234;49.344;11.120;2022-12-24T02:02:26;96924.00;;;11.40
18219;BMP180;9234;49.344;11.120;2022-12-24T02:05:01;96921.00;;;11.40
18219;BMP180;9234;49.344;11.120;2022-12-24T02:07:31;96944.00;;;11.40
18219;BMP180;9234;49.344;11.120;2022-12-24T02:10:01;96939.00;;;11.30
18219;BMP180;9234;49.344;11.120;2022-12-24T02:12:34;96935.00;;;11.30
18219;BMP180;9234;49.344;11.120;2022-12-24T02:15:05;96946.00;;;11.30
18219;BMP180;9234;49.344;11.120;2022-12-24T02:17:45;96947.00;;;11.30
18219;BMP180;9234;49.344;11.120;2022-12-24T02:20:45;96942.00;;;11.30
18219;BMP180;9234;49.344;11.120;2022-12-24T02:27:04;96953.00;;;11.40
18219;BMP180;9234;49.344;11.120;2022-12-24T02:30:07;96966.00;;;11.40
18219;BMP180;9234;49.344;11.120;2022-12-24T02:33:02;96964.00;;;11.40
18219;BMP180;9234;49.344;11.120;2022-12-24T02:35:43;96971.00;;;11.40
18219;BMP180;9234;49.344;11.120;2022-12-24T02:38:22;96969.00;;;11.40
18219;BMP180;9234;49.344;11.120;2022-12-24T02:40:57;96979.00;;;11.40
18219;BMP180;9234;49.344;11.120;2022-12-24T02:43:32;96972.00;;;11.40
18219;BMP180;9234;49.344;11.120;2022-12-24T02:46:08;96967.00;;;11.50
18219;BMP180;9234;49.344;11.120;2022-12-24T02:48:42;96968.00;;;11.50
18219;BMP180;9234;49.344;11.120;2022-12-24T02:51:12;96964.00;;;11.50
18219;BMP180;9234;49.344;11.120;2022-12-24T02:53:40;96970.00;;;11.50
18219;BMP180;9234;49.344;11.120;2022-12-24T02:56:27;96985.00;;;11.40
18219;BMP180;9234;49.344;11.120;2022-12-24T02:59:17;96982.00;;;11.40
18219;BMP180;9234;49.344;11.120;2022-12-24T03:02:04;96997.00;;;11.40
18219;BMP180;9234;49.344;11.120;2022-12-24T03:04:47;96998.00;;;11.40
18219;BMP180;9234;49.344;11.120;2022-12-24T03:07:25;97001.00;;;11.30
18219;BMP180;9234;49.344;11.120;2022-12-24T03:10:08;97006.00;;;11.30
18219;BMP180;9234;49.344;11.120;2022-12-24T03:12:43;97014.00;;;11.30
18219;BMP180;9234;49.344;11.120;2022-12-24T03:15:16;97016.00;;;11.30
18219;BMP180;9234;49.344;11.120;2022-12-24T03:17:49;97009.00;;;11.30
18219;BMP180;9234;49.344;11.120;2022-12-24T03:20:25;97025.00;;;11.30
18219;BMP180;9234;49.344;11.120;2022-12-24T03:22:57;97029.00;;;11.30
18219;BMP180;9234;49.344;11.120;2022-12-24T03:25:26;97034.00;;;11.30
18219;BMP180;9234;49.344;11.120;2022-12-24T03:27:56;97030.00;;;11.30
18219;BMP180;9234;49.344;11.120;2022-12-24T03:30:25;97039.00;;;11.30
18219;BMP180;9234;49.344;11.120;2022-12-24T03:32:55;97036.00;;;11.30
18219;BMP180;9234;49.344;11.120;2022-12-24T03:35:24;97039.00;;;11.20
18219;BMP180;9234;49.344;11.120;2022-12-24T03:37:52;97048.00;;;11.20
18219;BMP180;9234;49.344;11.120;2022-12-24T03:40:20;97021.00;;;11.10
18219;BMP180;9234;49.344;11.120;2022-12-24T03:42:48;97038.00;;;11.10
18219;BMP180;9234;49.344;11.120;2022-12-24T03:45:17;97040.00;;;11.00
18219;BMP180;9234;49.344;11.120;2022-12-24T03:47:46;97048.00;;;11.00
18219;BMP180;9234;49.344;11.120;2022-12-24T03:50:15;97051.00;;;10.90
18219;BMP180;9234;49.344;11.120;2022-12-24T03:52:43;97070.00;;;10.90
18219;BMP180;9234;49.344;11.120;2022-12-24T03:55:12;97065.00;;;10.80
18219;BMP180;9234;49.344;11.120;2022-12-24T03:57:40;97061.00;;;10.80
18219;BMP180;9234;49.344;11.120;2022-12-24T04:00:09;97063.00;;;10.80
18219;BMP180;9234;49.344;11.120;2022-12-24T04:02:39;97082.00;;;10.70
18219;BMP180;9234;49.344;11.120;2022-12-24T04:05:13;97087.00;;;10.70
18219;BMP180;9234;49.344;11.120;2022-12-24T04:07:45;97080.00;;;10.60
18219;BMP180;9234;49.344;11.120;2022-12-24T04:10:14;97077.00;;;10.60
18219;BMP180;9234;49.344;11.120;2022-12-24T04:12:42;97070.00;;;10.60
18219;BMP180;9234;49.344;11.120;2022-12-24T04:15:11;97088.00;;;10.60
18219;BMP180;9234;49.344;11.120;2022-12-24T04:17:39;97079.00;;;10.50
18219;BMP180;9234;49.344;11.120;2022-12-24T04:20:09;97075.00;;;10.50
18219;BMP180;9234;49.344;11.120;2022-12-24T04:22:37;97078.00;;;10.50
18219;BMP180;9234;49.344;11.120;2022-12-24T04:25:08;97070.00;;;10.40
18219;BMP180;9234;49.344;11.120;2022-12-24T04:27:36;97086.00;;;10.40
18219;BMP180;9234;49.344;11.120;2022-12-24T04:30:06;97078.00;;;10.40
18219;BMP180;9234;49.344;11.120;2022-12-24T04:32:35;97094.00;;;10.40
18219;BMP180;9234;49.344;11.120;2022-12-24T04:35:04;97100.00;;;10.30
18219;BMP180;9234;49.344;11.120;2022-12-24T04:37:33;97097.00;;;10.30
18219;BMP180;9234;49.344;11.120;2022-12-24T04:40:01;97098.00;;;10.30
18219;BMP180;9234;49.344;11.120;2022-12-24T04:42:31;97113.00;;;10.30
18219;BMP180;9234;49.344;11.120;2022-12-24T04:44:59;97100.00;;;10.30
18219;BMP180;9234;49.344;11.120;2022-12-24T04:47:27;97127.00;;;10.30
18219;BMP180;9234;49.344;11.120;2022-12-24T04:49:55;97120.00;;;10.20
18219;BMP180;9234;49.344;11.120;2022-12-24T04:52:24;97124.00;;;10.20
18219;BMP180;9234;49.344;11.120;2022-12-24T04:54:52;97111.00;;;10.20
18219;BMP180;9234;49.344;11.120;2022-12-24T04:57:20;97119.00;;;10.20
18219;BMP180;9234;49.344;11.120;2022-12-24T04:59:49;97120.00;;;10.20
18219;BMP180;9234;49.344;11.120;2022-12-24T05:02:18;97126.00;;;10.20
18219;BMP180;9234;49.344;11.120;2022-12-24T05:04:46;97109.00;;;10.20
18219;BMP180;9234;49.344;11.120;2022-12-24T05:07:14;97116.00;;;10.20
18219;BMP180;9234;49.344;11.120;2022-12-24T05:09:42;97112.00;;;10.20
18219;BMP180;9234;49.344;11.120;2022-12-24T05:12:10;97119.00;;;10.20
18219;BMP180;9234;49.344;11.120;2022-12-24T05:14:38;97131.00;;;10.20
18219;BMP180;9234;49.344;11.120;2022-12-24T05:17:08;97139.00;;;10.20
18219;BMP180;9234;49.344;11.120;2022-12-24T05:19:36;97118.00;;;10.20
18219;BMP180;9234;49.344;11.120;2022-12-24T05:22:04;97124.00;;;10.20
18219;BMP180;9234;49.344;11.120;2022-12-24T05:24:50;97132.00;;;10.20
18219;BMP180;9234;49.344;11.120;2022-12-24T05:27:36;97131.00;;;10.20
18219;BMP180;9234;49.344;11.120;2022-12-24T05:30:06;97122.00;;;10.20
18219;BMP180;9234;49.344;11.120;2022-12-24T05:32:36;97130.00;;;10.30
18219;BMP180;9234;49.344;11.120;2022-12-24T05:35:05;97126.00;;;10.30
18219;BMP180;9234;49.344;11.120;2022-12-24T05:37:33;97138.00;;;10.30
18219;BMP180;9234;49.344;11.120;2022-12-24T05:40:01;97150.00;;;10.30
18219;BMP180;9234;49.344;11.120;2022-12-24T05:42:29;97134.00;;;10.30
18219;BMP180;9234;49.344;11.120;2022-12-24T05:44:57;97141.00;;;10.30
18219;BMP180;9234;49.344;11.120;2022-12-24T05:47:25;97143.00;;;10.40
18219;BMP180;9234;49.344;11.120;2022-12-24T05:49:55;97146.00;;;10.40
18219;BMP180;9234;49.344;11.120;2022-12-24T05:52:23;97159.00;;;10.40
18219;BMP180;9234;49.344;11.120;2022-12-24T05:54:51;97159.00;;;10.30
18219;BMP180;9234;49.344;11.120;2022-12-24T05:57:19;97149.00;;;10.30
18219;BMP180;9234;49.344;11.120;2022-12-24T05:59:47;97164.00;;;10.30
18219;BMP180;9234;49.344;11.120;2022-12-24T06:02:16;97152.00;;;10.30
18219;BMP180;9234;49.344;11.120;2022-12-24T06:04:44;97140.00;;;10.30
18219;BMP180;9234;49.344;11.120;2022-12-24T06:07:13;97161.00;;;10.30
18219;BMP180;9234;49.344;11.120;2022-12-24T06:09:42;97167.00;;;10.30
18219;BMP180;9234;49.344;11.120;2022-12-24T06:12:10;97146.00;;;10.30
18219;BMP180;9234;49.344;11.120;2022-12-24T06:14:38;97158.00;;;10.40
18219;BMP180;9234;49.344;11.120;2022-12-24T06:17:06;97168.00;;;10.40
18219;BMP180;9234;49.344;11.120;2022-12-24T06:19:34;97168.00;;;10.40
18219;BMP180;9234;49.344;11.120;2022-12-24T06:22:02;97163.00;;;10.40
18219;BMP180;9234;49.344;11.120;2022-12-24T06:24:32;97161.00;;;10.40
18219;BMP180;9234;49.344;11.120;2022-12-24T06:27:00;97152.00;;;10.40
18219;BMP180;9234;49.344;11.120;2022-12-24T06:29:28;97158.00;;;10.40
18219;BMP180;9234;49.344;11.120;2022-12-24T06:31:56;97163.00;;;10.40
18219;BMP180;9234;49.344;11.120;2022-12-24T06:34:24;97175.00;;;10.50
18219;BMP180;9234;49.344;11.120;2022-12-24T06:36:53;97181.00;;;10.50
18219;BMP180;9234;49.344;11.120;2022-12-24T06:39:21;97174.00;;;10.50
18219;BMP180;9234;49.344;11.120;2022-12-24T06:41:50;97177.00;;;10.50
18219;BMP180;9234;49.344;11.120;2022-12-24T06:44:19;97169.00;;;10.50
18219;BMP180;9234;49.344;11.120;2022-12-24T06:46:47;97170.00;;;10.60
18219;BMP180;9234;49.344;11.120;2022-12-24T06:49:15;97169.00;;;10.60
18219;BMP180;9234;49.344;11.120;2022-12-24T06:51:43;97183.00;;;10.60
18219;BMP180;9234;49.344;11.120;2022-12-24T06:54:11;97181.00;;;10.60
18219;BMP180;9234;49.344;11.120;2022-12-24T06:56:39;97179.00;;;10.60
18219;BMP180;9234;49.344;11.120;2022-12-24T06:59:09;97194.00;;;10.60
18219;BMP180;9234;49.344;11.120;2022-12-24T07:01:37;97216.00;;;10.60
18219;BMP180;9234;49.344;11.120;2022-12-24T07:04:05;97195.00;;;10.60
18219;BMP180;9234;49.344;11.120;2022-12-24T07:06:34;97198.00;;;10.60
18219;BMP180;9234;49.344;11.120;2022-12-24T07:09:02;97198.00;;;10.60
18219;BMP180;9234;49.344;11.120;2022-12-24T07:11:30;97206.00;;;10.60
18219;BMP180;9234;49.344;11.120;2022-12-24T07:13:58;97219.00;;;10.60
18219;BMP180;9234;49.344;11.120;2022-12-24T07:16:28;97224.00;;;10.60
18219;BMP180;9234;49.344;11.120;2022-12-24T07:18:56;97222.00;;;10.60
18219;BMP180;9234;49.344;11.120;2022-12-24T07:21:24;97226.00;;;10.60
18219;BMP180;9234;49.344;11.120;2022-12-24T07:23:52;97235.00;;;10.70
18219;BMP180;9234;49.344;11.120;2022-12-24T07:26:21;97224.00;;;10.70
18219;BMP180;9234;49.344;11.120;2022-12-24T07:28:49;97235.00;;;10.70
18219;BMP180;9234;49.344;11.120;2022-12-24T07:31:17;97245.00;;;10.70
18219;BMP180;9234;49.344;11.120;2022-12-24T07:33:46;97253.00;;;10.70
18219;BMP180;9234;49.344;11.120;2022-12-24T07:36:18;97246.00;;;10.70
18219;BMP180;9234;49.344;11.120;2022-12-24T07:38:47;97258.00;;;10.70
18219;BMP180;9234;49.344;11.120;2022-12-24T07:41:16;97272.00;;;10.70
18219;BMP180;9234;49.344;11.120;2022-12-24T07:43:45;97258.00;;;10.70
18219;BMP180;9234;49.344;11.120;2022-12-24T07:46:13;97270.00;;;10.70
18219;BMP180;9234;49.344;11.120;2022-12-24T07:48:42;97267.00;;;10.70
18219;BMP180;9234;49.344;11.120;2022-12-24T07:51:11;97289.00;;;10.70
18219;BMP180;9234;49.344;11.120;2022-12-24T07:53:39;97274.00;;;10.80
18219;BMP180;9234;49.344;11.120;2022-12-24T07:56:14;97278.00;;;10.80
18219;BMP180;9234;49.344;11.120;2022-12-24T07:58:42;97263.00;;;10.80
18219;BMP180;9234;49.344;11.120;2022-12-24T08:01:11;97264.00;;;10.80
18219;BMP180;9234;49.344;11.120;2022-12-24T08:03:39;97256.00;;;10.80
18219;BMP180;9234;49.344;11.120;2022-12-24T08:06:08;97285.00;;;10.80
18219;BMP180;9234;49.344;11.120;2022-12-24T08:08:37;97281.00;;;10.70
18219;BMP180;9234;49.344;11.120;2022-12-24T08:11:06;97276.00;;;10.60
18219;BMP180;9234;49.344;11.120;2022-12-24T08:13:34;97276.00;;;10.60
18219;BMP180;9234;49.344;11.120;2022-12-24T08:16:03;97279.00;;;10.60
18219;BMP180;9234;49.344;11.120;2022-12-24T08:18:32;97279.00;;;10.50
18219;BMP180;9234;49.344;11.120;2022-12-24T08:21:00;97281.00;;;10.50
18219;BMP180;9234;49.344;11.120;2022-12-24T08:23:28;97288.00;;;10.60
18219;BMP180;9234;49.344;11.120;2022-12-24T08:25:58;97295.00;;;10.70
18219;BMP180;9234;49.344;11.120;2022-12-24T08:28:26;97286.00;;;10.70
18219;BMP180;9234;49.344;11.120;2022-12-24T08:30:54;97291.00;;;10.80
18219;BMP180;9234;49.344;11.120;2022-12-24T08:33:22;97296.00;;;10.90
18219;BMP180;9234;49.344;11.120;2022-12-24T08:35:53;97293.00;;;10.90
18219;BMP180;9234;49.344;11.120;2022-12-24T08:38:23;97306.00;;;10.90
18219;BMP180;9234;49.344;11.120;2022-12-24T08:40:52;97296.00;;;11.00
18219;BMP180;9234;49.344;11.120;2022-12-24T08:43:22;97311.00;;;11.00
18219;BMP180;9234;49.344;11.120;2022-12-24T08:45:52;97309.00;;;11.00
18219;BMP180;9234;49.344;11.120;2022-12-24T08:48:20;97308.00;;;10.90
18219;BMP180;9234;49.344;11.120;2022-12-24T08:50:49;97320.00;;;10.90
18219;BMP180;9234;49.344;11.120;2022-12-24T08:53:17;97331.00;;;11.00
18219;BMP180;9234;49.344;11.120;2022-12-24T08:55:45;97321.00;;;11.00
18219;BMP180;9234;49.344;11.120;2022-12-24T08:58:23;97329.00;;;11.00
18219;BMP180;9234;49.344;11.120;2022-12-24T09:00:51;97343.00;;;11.00
18219;BMP180;9234;49.344;11.120;2022-12-24T09:03:19;97337.00;;;11.00
18219;BMP180;9234;49.344;11.120;2022-12-24T09:05:54;97350.00;;;11.10
18219;BMP180;9234;49.344;11.120;2022-12-24T09:08:22;97335.00;;;11.10
18219;BMP180;9234;49.344;11.120;2022-12-24T09:10:50;97335.00;;;11.10
18219;BMP180;9234;49.344;11.120;2022-12-24T09:13:18;97334.00;;;11.10
18219;BMP180;9234;49.344;11.120;2022-12-24T09:15:54;97334.00;;;11.10
18219;BMP180;9234;49.344;11.120;2022-12-24T09:18:22;97344.00;;;11.10
18219;BMP180;9234;49.344;11.120;2022-12-24T09:20:51;97351.00;;;11.20
18219;BMP180;9234;49.344;11.120;2022-12-24T09:23:25;97354.00;;;11.20
18219;BMP180;9234;49.344;11.120;2022-12-24T09:25:54;97350.00;;;11.20
18219;BMP180;9234;49.344;11.120;2022-12-24T09:28:22;97365.00;;;11.30
18219;BMP180;9234;49.344;11.120;2022-12-24T09:30:58;97367.00;;;11.30
18219;BMP180;9234;49.344;11.120;2022-12-24T09:33:28;97372.00;;;11.40
18219;BMP180;9234;49.344;11.120;2022-12-24T09:35:57;97370.00;;;11.40
18219;BMP180;9234;49.344;11.120;2022-12-24T09:38:25;97373.00;;;11.40
18219;BMP180;9234;49.344;11.120;2022-12-24T09:40:55;97363.00;;;11.60
18219;BMP180;9234;49.344;11.120;2022-12-24T09:43:31;97376.00;;;11.70
18219;BMP180;9234;49.344;11.120;2022-12-24T09:46:16;97383.00;;;11.90
18219;BMP180;9234;49.344;11.120;2022-12-24T09:48:53;97380.00;;;12.10
18219;BMP180;9234;49.344;11.120;2022-12-24T09:51:30;97381.00;;;12.20
18219;BMP180;9234;49.344;11.120;2022-12-24T09:54:06;97372.00;;;12.30
18219;BMP180;9234;49.344;11.120;2022-12-24T09:56:41;97386.00;;;12.30
18219;BMP180;9234;49.344;11.120;2022-12-24T09:59:15;97376.00;;;12.20
18219;BMP180;9234;49.344;11.120;2022-12-24T10:01:47;97381.00;;;12.20
18219;BMP180;9234;49.344;11.120;2022-12-24T10:04:19;97377.00;;;12.20
18219;BMP180;9234;49.344;11.120;2022-12-24T10:06:54;97376.00;;;12.20
18219;BMP180;9234;49.344;11.120;2022-12-24T10:09:35;97400.00;;;12.10
18219;BMP180;9234;49.344;11.120;2022-12-24T10:12:13;97393.00;;;12.10
18219;BMP180;9234;49.344;11.120;2022-12-24T10:14:57;97386.00;;;12.10
18219;BMP180;9234;49.344;11.120;2022-12-24T10:17:45;97385.00;;;12.10
18219;BMP180;9234;49.344;11.120;2022-12-24T10:20:44;97393.00;;;12.10
18219;BMP180;9234;49.344;11.120;2022-12-24T10:23:21;97400.00;;;12.20
18219;BMP180;9234;49.344;11.120;2022-12-24T10:26:04;97388.00;;;12.30
18219;BMP180;9234;49.344;11.120;2022-12-24T10:28:40;97377.00;;;12.40
18219;BMP180;9234;49.344;11.120;2022-12-24T10:31:10;97396.00;;;12.60
18219;BMP180;9234;49.344;11.120;2022-12-24T10:33:44;97395.00;;;12.80
18219;BMP180;9234;49.344;11.120;2022-12-24T10:36:17;97396.00;;;13.00
18219;BMP180;9234;49.344;11.120;2022-12-24T10:38:45;97389.00;;;13.20
18219;BMP180;9234;49.344;11.120;2022-12-24T10:41:15;97398.00;;;13.30
18219;BMP180;9234;49.344;11.120;2022-12-24T10:43:45;97401.00;;;13.30
18219;BMP180;9234;49.344;11.120;2022-12-24T10:46:19;97399.00;;;13.20
18219;BMP180;9234;49.344;11.120;2022-12-24T10:48:54;97391.00;;;13.30
18219;BMP180;9234;49.344;11.120;2022-12-24T10:51:40;97413.00;;;13.30
18219;BMP180;9234;49.344;11.120;2022-12-24T10:54:13;97397.00;;;13.30
18219;BMP180;9234;49.344;11.120;2022-12-24T10:56:57;97388.00;;;13.30
18219;BMP180;9234;49.344;11.120;2022-12-24T10:59:29;97393.00;;;13.40
18219;BMP180;9234;49.344;11.120;2022-12-24T11:01:59;97404.00;;;13.40
18219;BMP180;9234;49.344;11.120;2022-12-24T11:04:31;97394.00;;;13.40
18219;BMP180;9234;49.344;11.120;2022-12-24T11:07:02;97390.00;;;13.40
18219;BMP180;9234;49.344;11.120;2022-12-24T11:09:33;97403.00;;;13.40
18219;BMP180;9234;49.344;11.120;2022-12-24T11:12:05;97407.00;;;13.50
18219;BMP180;9234;49.344;11.120;2022-12-24T11:14:41;97401.00;;;13.50
18219;BMP180;9234;49.344;11.120;2022-12-24T11:17:20;97407.00;;;13.40
18219;BMP180;9234;49.344;11.120;2022-12-24T11:19:50;97413.00;;;13.40
18219;BMP180;9234;49.344;11.120;2022-12-24T11:22:24;97417.00;;;13.40
18219;BMP180;9234;49.344;11.120;2022-12-24T11:25:02;97407.00;;;13.50
18219;BMP180;9234;49.344;11.120;2022-12-24T11:27:39;97406.00;;;13.70
18219;BMP180;9234;49.344;11.120;2022-12-24T11:30:28;97405.00;;;13.80
18219;BMP180;9234;49.344;11.120;2022-12-24T11:33:18;97391.00;;;14.00
18219;BMP180;9234;49.344;11.120;2022-12-24T11:35:53;97396.00;;;14.20
18219;BMP180;9234;49.344;11.120;2022-12-24T11:38:25;97393.00;;;14.30
18219;BMP180;9234;49.344;11.120;2022-12-24T11:41:04;97401.00;;;14.40
18219;BMP180;9234;49.344;11.120;2022-12-24T11:43:39;97403.00;;;14.60
18219;BMP180;9234;49.344;11.120;2022-12-24T11:46:33;97398.00;;;14.80
18219;BMP180;9234;49.344;11.120;2022-12-24T11:49:20;97390.00;;;14.90
18219;BMP180;9234;49.344;11.120;2022-12-24T11:52:26;97384.00;;;14.90
18219;BMP180;9234;49.344;11.120;2022-12-24T11:55:13;97406.00;;;15.00
18219;BMP180;9234;49.344;11.120;2022-12-24T11:57:54;97404.00;;;15.10
18219;BMP180;9234;49.344;11.120;2022-12-24T12:00:24;97381.00;;;15.30
18219;BMP180;9234;49.344;11.120;2022-12-24T12:02:58;97392.00;;;15.30
18219;BMP180;9234;49.344;11.120;2022-12-24T12:05:32;97407.00;;;15.20
18219;BMP180;9234;49.344;11.120;2022-12-24T12:08:12;97403.00;;;14.90
18219;BMP180;9234;49.344;11.120;2022-12-24T12:10:44;97411.00;;;14.80
18219;BMP180;9234;49.344;11.120;2022-12-24T12:13:17;97396.00;;;14.80
18219;BMP180;9234;49.344;11.120;2022-12-24T12:15:50;97399.00;;;14.90
18219;BMP180;9234;49.344;11.120;2022-12-24T12:18:23;97399.00;;;15.00
18219;BMP180;9234;49.344;11.120;2022-12-24T12:21:01;97403.00;;;15.00
18219;BMP180;9234;49.344;11.120;2022-12-24T12:23:36;97404.00;;;15.00
18219;BMP180;9234;49.344;11.120;2022-12-24T12:26:11;97405.00;;;15.00
18219;BMP180;9234;49.344;11.120;2022-12-24T12:28:47;97415.00;;;15.00
18219;BMP180;9234;49.344;11.120;2022-12-24T12:31:22;97396.00;;;15.10
18219;BMP180;9234;49.344;11.120;2022-12-24T12:33:58;97399.00;;;15.40
18219;BMP180;9234;49.344;11.120;2022-12-24T12:36:33;97401.00;;;15.70
18219;BMP180;9234;49.344;11.120;2022-12-24T12:39:05;97415.00;;;15.90
18219;BMP180;9234;49.344;11.120;2022-12-24T12:41:49;97396.00;;;16.40
18219;BMP180;9234;49.344;11.120;2022-12-24T12:44:48;97411.00;;;16.70
18219;BMP180;9234;49.344;11.120;2022-12-24T12:47:37;97401.00;;;16.90
18219;BMP180;9234;49.344;11.120;2022-12-24T12:50:16;97409.00;;;17.00
18219;BMP180;9234;49.344;11.120;2022-12-24T12:53:27;97415.00;;;17.20
18219;BMP180;9234;49.344;11.120;2022-12-24T12:56:12;97419.00;;;17.50
18219;BMP180;9234;49.344;11.120;2022-12-24T12:58:51;97415.00;;;17.40
18219;BMP180;9234;49.344;11.120;2022-12-24T13:01:25;97409.00;;;17.70
18219;BMP180;9234;49.344;11.120;2022-12-24T13:04:26;97405.00;;;18.10
18219;BMP180;9234;49.344;11.120;2022-12-24T13:10:53;97411.00;;;18.10
18219;BMP180;9234;49.344;11.120;2022-12-24T13:14:18;97416.00;;;17.70
18219;BMP180;9234;49.344;11.120;2022-12-24T13:17:37;97409.00;;;17.70
18219;BMP180;9234;49.344;11.120;2022-12-24T13:20:19;97415.00;;;17.80
18219;BMP180;9234;49.344;11.120;2022-12-24T13:22:55;97428.00;;;17.70
18219;BMP180;9234;49.344;11.120;2022-12-24T13:25:31;97440.00;;;17.80
18219;BMP180;9234;49.344;11.120;2022-12-24T13:28:15;97426.00;;;17.90
18219;BMP180;9234;49.344;11.120;2022-12-24T13:30:47;97437.00;;;17.80
18219;BMP180;9234;49.344;11.120;2022-12-24T13:33:47;97440.00;;;17.90
18219;BMP180;9234;49.344;11.120;2022-12-24T13:36:17;97444.00;;;18.00
18219;BMP180;9234;49.344;11.120;2022-12-24T13:38:48;97437.00;;;17.90
18219;BMP180;9234;49.344;11.120;2022-12-24T13:41:49;97439.00;;;17.20
18219;BMP180;9234;49.344;11.120;2022-12-24T13:44:26;97443.00;;;16.40
18219;BMP180;9234;49.344;11.120;2022-12-24T13:47:17;97451.00;;;15.50
18219;BMP180;9234;49.344;11.120;2022-12-24T13:50:22;97467.00;;;15.00
18219;BMP180;9234;49.344;11.120;2022-12-24T13:52:52;97461.00;;;14.60
18219;BMP180;9234;49.344;11.120;2022-12-24T13:55:21;97461.00;;;14.30
18219;BMP180;9234;49.344;11.120;2022-12-24T13:57:57;97464.00;;;14.10
18219;BMP180;9234;49.344;11.120;2022-12-24T14:00:36;97456.00;;;13.90
18219;BMP180;9234;49.344;11.120;2022-12-24T14:03:23;97458.00;;;13.80
18219;BMP180;9234;49.344;11.120;2022-12-24T14:05:57;97458.00;;;13.90
18219;BMP180;9234;49.344;11.120;2022-12-24T14:08:38;97461.00;;;14.00
18219;BMP180;9234;49.344;11.120;2022-12-24T14:11:10;97468.00;;;13.90
18219;BMP180;9234;49.344;11.120;2022-12-24T14:14:17;97452.00;;;13.80
18219;BMP180;9234;49.344;11.120;2022-12-24T14:16:54;97465.00;;;13.60
18219;BMP180;9234;49.344;11.120;2022-12-24T14:19:29;97478.00;;;13.50
18219;BMP180;9234;49.344;11.120;2022-12-24T14:22:23;97450.00;;;13.40
18219;BMP180;9234;49.344;11.120;2022-12-24T14:24:57;97464.00;;;13.30
18219;BMP180;9234;49.344;11.120;2022-12-24T14:27:36;97468.00;;;13.20
18219;BMP180;9234;49.344;11.120;2022-12-24T14:30:15;97471.00;;;13.10
18219;BMP180;9234;49.344;11.120;2022-12-24T14:32:49;97478.00;;;13.00
18219;BMP180;9234;49.344;11.120;2022-12-24T14:35:22;97476.00;;;12.90
18219;BMP180;9234;49.344;11.120;2022-12-24T14:37:58;97479.00;;;12.80
18219;BMP180;9234;49.344;11.120;2022-12-24T14:40:29;97486.00;;;12.70
18219;BMP180;9234;49.344;11.120;2022-12-24T14:43:08;97495.00;;;12.60
18219;BMP180;9234;49.344;11.120;2022-12-24T14:45:45;97502.00;;;12.40
18219;BMP180;9234;49.344;11.120;2022-12-24T14:48:24;97495.00;;;12.30
18219;BMP180;9234;49.344;11.120;2022-12-24T14:51:09;97502.00;;;12.20
18219;BMP180;9234;49.344;11.120;2022-12-24T14:54:15;97496.00;;;12.10